sensor_id;sensor_type;location;lat;lon;timestamp;P1;durP1;ratioP1;P2;durP2;ratioP2
17384;SDS011;8810;48.680;8.894;2022-12-07T00:00:44;9.70;;;5.33;;
17384;SDS011;8810;48.680;8.894;2022-12-07T00:03:11;8.00;;;5.37;;
17384;SDS011;8810;48.680;8.894;2022-12-07T00:05:38;12.73;;;5.07;;
17384;SDS011;8810;48.680;8.894;2022-12-07T00:08:06;10.17;;;4.80;;
17384;SDS011;8810;48.680;8.894;2022-12-07T00:10:33;8.90;;;5.17;;
17384;SDS011;8810;48.680;8.894;2022-12-07T00:13:00;6.13;;;4.20;;
17384;SDS011;8810;48.680;8.894;2022-12-07T00:15:27;7.37;;;4.80;;
17384;SDS011;8810;48.680;8.894;2022-12-07T00:17:53;8.03;;;4.90;;
17384;SDS011;8810;48.680;8.894;2022-12-07T00:20:20;10.33;;;4.93;;
17384;SDS011;8810;48.680;8.894;2022-12-07T00:22:49;10.00;;;5.10;;
17384;SDS011;8810;48.680;8.894;2022-12-07T00:25:17;9.83;;;5.20;;
17384;SDS011;8810;48.680;8.894;2022-12-07T00:27:44;9.27;;;5.23;;
17384;SDS011;8810;48.680;8.894;2022-12-07T00:30:11;9.63;;;5.20;;
17384;SDS011;8810;48.680;8.894;2022-12-07T00:32:38;10.30;;;5.50;;
17384;SDS011;8810;48.680;8.894;2022-12-07T00:35:05;10.87;;;5.50;;
17384;SDS011;8810;48.680;8.894;2022-12-07T00:37:32;9.80;;;5.00;;
17384;SDS011;8810;48.680;8.894;2022-12-07T00:39:59;8.53;;;5.23;;
17384;SDS011;8810;48.680;8.894;2022-12-07T00:42:27;8.63;;;5.27;;
17384;SDS011;8810;48.680;8.894;2022-12-07T00:44:54;10.53;;;5.13;;
17384;SDS011;8810;48.680;8.894;2022-12-07T00:47:21;9.43;;;5.60;;
17384;SDS011;8810;48.680;8.894;2022-12-07T00:49:47;9.17;;;5.10;;
17384;SDS011;8810;48.680;8.894;2022-12-07T00:52:14;9.33;;;5.20;;
17384;SDS011;8810;48.680;8.894;2022-12-07T00:54:41;8.73;;;5.30;;
17384;SDS011;8810;48.680;8.894;2022-12-07T00:57:08;9.87;;;5.70;;
17384;SDS011;8810;48.680;8.894;2022-12-07T00:59:36;8.90;;;5.23;;
17384;SDS011;8810;48.680;8.894;2022-12-07T01:02:03;8.03;;;5.20;;
17384;SDS011;8810;48.680;8.894;2022-12-07T01:04:29;9.77;;;5.27;;
17384;SDS011;8810;48.680;8.894;2022-12-07T01:07:00;8.63;;;5.43;;
17384;SDS011;8810;48.680;8.894;2022-12-07T01:09:27;8.87;;;5.47;;
17384;SDS011;8810;48.680;8.894;2022-12-07T01:11:54;10.70;;;5.50;;
17384;SDS011;8810;48.680;8.894;2022-12-07T01:14:21;11.00;;;5.67;;
17384;SDS011;8810;48.680;8.894;2022-12-07T01:16:49;7.73;;;5.40;;
17384;SDS011;8810;48.680;8.894;2022-12-07T01:19:15;9.97;;;5.43;;
17384;SDS011;8810;48.680;8.894;2022-12-07T01:21:42;9.33;;;5.73;;
17384;SDS011;8810;48.680;8.894;2022-12-07T01:24:12;9.03;;;6.00;;
17384;SDS011;8810;48.680;8.894;2022-12-07T01:26:39;8.10;;;5.17;;
17384;SDS011;8810;48.680;8.894;2022-12-07T01:29:06;9.60;;;5.67;;
17384;SDS011;8810;48.680;8.894;2022-12-07T01:31:33;8.83;;;5.20;;
17384;SDS011;8810;48.680;8.894;2022-12-07T01:34:01;9.67;;;5.83;;
17384;SDS011;8810;48.680;8.894;2022-12-07T01:36:28;8.20;;;4.93;;
17384;SDS011;8810;48.680;8.894;2022-12-07T01:38:57;8.00;;;5.03;;
17384;SDS011;8810;48.680;8.894;2022-12-07T01:41:25;9.67;;;6.00;;
17384;SDS011;8810;48.680;8.894;2022-12-07T01:44:07;9.43;;;5.57;;
17384;SDS011;8810;48.680;8.894;2022-12-07T01:46:41;12.23;;;6.30;;
17384;SDS011;8810;48.680;8.894;2022-12-07T01:49:12;11.43;;;6.67;;
17384;SDS011;8810;48.680;8.894;2022-12-07T01:51:43;12.77;;;6.20;;
17384;SDS011;8810;48.680;8.894;2022-12-07T01:54:12;11.53;;;6.67;;
17384;SDS011;8810;48.680;8.894;2022-12-07T01:56:40;9.77;;;5.90;;
17384;SDS011;8810;48.680;8.894;2022-12-07T01:59:10;10.57;;;5.83;;
17384;SDS011;8810;48.680;8.894;2022-12-07T02:01:37;11.07;;;6.33;;
17384;SDS011;8810;48.680;8.894;2022-12-07T02:04:04;11.13;;;6.50;;
17384;SDS011;8810;48.680;8.894;2022-12-07T02:06:33;11.67;;;6.20;;
17384;SDS011;8810;48.680;8.894;2022-12-07T02:09:02;12.83;;;6.53;;
17384;SDS011;8810;48.680;8.894;2022-12-07T02:11:29;13.37;;;6.80;;
17384;SDS011;8810;48.680;8.894;2022-12-07T02:13:56;10.30;;;6.20;;
17384;SDS011;8810;48.680;8.894;2022-12-07T02:16:25;9.77;;;5.80;;
17384;SDS011;8810;48.680;8.894;2022-12-07T02:19:04;8.80;;;5.30;;
17384;SDS011;8810;48.680;8.894;2022-12-07T02:21:52;10.77;;;6.20;;
17384;SDS011;8810;48.680;8.894;2022-12-07T02:24:30;10.37;;;5.73;;
17384;SDS011;8810;48.680;8.894;2022-12-07T02:27:27;11.07;;;6.03;;
17384;SDS011;8810;48.680;8.894;2022-12-07T02:30:03;8.97;;;5.27;;
17384;SDS011;8810;48.680;8.894;2022-12-07T02:32:36;8.73;;;5.33;;
17384;SDS011;8810;48.680;8.894;2022-12-07T02:35:12;9.20;;;5.57;;
17384;SDS011;8810;48.680;8.894;2022-12-07T02:37:47;9.50;;;5.23;;
17384;SDS011;8810;48.680;8.894;2022-12-07T02:40:20;9.50;;;5.80;;
17384;SDS011;8810;48.680;8.894;2022-12-07T02:42:53;10.60;;;5.37;;
17384;SDS011;8810;48.680;8.894;2022-12-07T02:45:26;8.37;;;4.90;;
17384;SDS011;8810;48.680;8.894;2022-12-07T02:47:56;10.83;;;6.23;;
17384;SDS011;8810;48.680;8.894;2022-12-07T02:50:25;10.03;;;5.33;;
17384;SDS011;8810;48.680;8.894;2022-12-07T02:52:53;11.87;;;5.83;;
17384;SDS011;8810;48.680;8.894;2022-12-07T02:55:21;10.27;;;6.10;;
17384;SDS011;8810;48.680;8.894;2022-12-07T02:58:00;11.20;;;5.97;;
17384;SDS011;8810;48.680;8.894;2022-12-07T03:00:48;10.30;;;5.90;;
17384;SDS011;8810;48.680;8.894;2022-12-07T03:03:20;10.30;;;5.77;;
17384;SDS011;8810;48.680;8.894;2022-12-07T03:05:52;8.17;;;5.00;;
17384;SDS011;8810;48.680;8.894;2022-12-07T03:08:30;11.77;;;6.10;;
17384;SDS011;8810;48.680;8.894;2022-12-07T03:11:03;10.33;;;5.70;;
17384;SDS011;8810;48.680;8.894;2022-12-07T03:13:33;9.67;;;5.57;;
17384;SDS011;8810;48.680;8.894;2022-12-07T03:16:10;9.00;;;5.50;;
17384;SDS011;8810;48.680;8.894;2022-12-07T03:18:42;11.43;;;5.93;;
17384;SDS011;8810;48.680;8.894;2022-12-07T03:21:14;8.90;;;5.50;;
17384;SDS011;8810;48.680;8.894;2022-12-07T03:23:44;12.40;;;5.13;;
17384;SDS011;8810;48.680;8.894;2022-12-07T03:26:14;8.93;;;5.53;;
17384;SDS011;8810;48.680;8.894;2022-12-07T03:28:45;10.17;;;5.47;;
17384;SDS011;8810;48.680;8.894;2022-12-07T03:31:17;8.60;;;5.20;;
17384;SDS011;8810;48.680;8.894;2022-12-07T03:33:49;10.47;;;5.20;;
17384;SDS011;8810;48.680;8.894;2022-12-07T03:36:23;9.50;;;5.53;;
17384;SDS011;8810;48.680;8.894;2022-12-07T03:38:55;9.10;;;4.93;;
17384;SDS011;8810;48.680;8.894;2022-12-07T03:41:27;9.53;;;5.63;;
17384;SDS011;8810;48.680;8.894;2022-12-07T03:43:56;9.33;;;5.70;;
17384;SDS011;8810;48.680;8.894;2022-12-07T03:46:27;11.63;;;5.67;;
17384;SDS011;8810;48.680;8.894;2022-12-07T03:49:03;10.13;;;5.80;;
17384;SDS011;8810;48.680;8.894;2022-12-07T03:51:37;9.13;;;5.33;;
17384;SDS011;8810;48.680;8.894;2022-12-07T03:54:10;10.30;;;5.80;;
17384;SDS011;8810;48.680;8.894;2022-12-07T03:56:42;13.47;;;5.63;;
17384;SDS011;8810;48.680;8.894;2022-12-07T03:59:11;9.53;;;5.23;;
17384;SDS011;8810;48.680;8.894;2022-12-07T04:01:42;9.53;;;5.50;;
17384;SDS011;8810;48.680;8.894;2022-12-07T04:04:09;8.43;;;4.90;;
17384;SDS011;8810;48.680;8.894;2022-12-07T04:06:38;9.60;;;5.50;;
17384;SDS011;8810;48.680;8.894;2022-12-07T04:09:05;8.10;;;4.90;;
17384;SDS011;8810;48.680;8.894;2022-12-07T04:11:31;9.80;;;4.93;;
17384;SDS011;8810;48.680;8.894;2022-12-07T04:13:58;7.60;;;4.63;;
17384;SDS011;8810;48.680;8.894;2022-12-07T04:16:44;10.27;;;5.23;;
17384;SDS011;8810;48.680;8.894;2022-12-07T04:19:11;9.30;;;5.43;;
17384;SDS011;8810;48.680;8.894;2022-12-07T04:21:38;9.30;;;5.17;;
17384;SDS011;8810;48.680;8.894;2022-12-07T04:24:05;10.57;;;5.13;;
17384;SDS011;8810;48.680;8.894;2022-12-07T04:26:32;9.83;;;4.90;;
17384;SDS011;8810;48.680;8.894;2022-12-07T04:28:59;8.80;;;5.33;;
17384;SDS011;8810;48.680;8.894;2022-12-07T04:31:26;8.20;;;5.13;;
17384;SDS011;8810;48.680;8.894;2022-12-07T04:33:54;7.93;;;4.63;;
17384;SDS011;8810;48.680;8.894;2022-12-07T04:36:21;8.90;;;4.60;;
17384;SDS011;8810;48.680;8.894;2022-12-07T04:38:48;9.20;;;5.47;;
17384;SDS011;8810;48.680;8.894;2022-12-07T04:41:14;8.53;;;4.90;;
17384;SDS011;8810;48.680;8.894;2022-12-07T04:43:41;9.03;;;4.80;;
17384;SDS011;8810;48.680;8.894;2022-12-07T04:46:11;7.83;;;4.37;;
17384;SDS011;8810;48.680;8.894;2022-12-07T04:48:38;7.80;;;4.43;;
17384;SDS011;8810;48.680;8.894;2022-12-07T04:51:06;7.63;;;4.50;;
17384;SDS011;8810;48.680;8.894;2022-12-07T04:53:33;6.80;;;3.87;;
17384;SDS011;8810;48.680;8.894;2022-12-07T04:56:00;6.90;;;4.03;;
17384;SDS011;8810;48.680;8.894;2022-12-07T04:58:27;7.13;;;3.90;;
17384;SDS011;8810;48.680;8.894;2022-12-07T05:00:54;7.00;;;4.20;;
17384;SDS011;8810;48.680;8.894;2022-12-07T05:03:21;6.33;;;3.63;;
17384;SDS011;8810;48.680;8.894;2022-12-07T05:05:48;6.33;;;4.07;;
17384;SDS011;8810;48.680;8.894;2022-12-07T05:08:16;6.47;;;3.83;;
17384;SDS011;8810;48.680;8.894;2022-12-07T05:10:43;5.97;;;3.53;;
17384;SDS011;8810;48.680;8.894;2022-12-07T05:13:10;5.60;;;3.60;;
17384;SDS011;8810;48.680;8.894;2022-12-07T05:15:36;6.47;;;4.03;;
17384;SDS011;8810;48.680;8.894;2022-12-07T05:18:03;7.00;;;4.03;;
17384;SDS011;8810;48.680;8.894;2022-12-07T05:20:30;6.67;;;3.97;;
17384;SDS011;8810;48.680;8.894;2022-12-07T05:22:57;9.90;;;4.53;;
17384;SDS011;8810;48.680;8.894;2022-12-07T05:25:25;6.93;;;4.20;;
17384;SDS011;8810;48.680;8.894;2022-12-07T05:27:53;8.30;;;4.57;;
17384;SDS011;8810;48.680;8.894;2022-12-07T05:30:21;6.33;;;3.80;;
17384;SDS011;8810;48.680;8.894;2022-12-07T05:32:49;7.63;;;4.07;;
17384;SDS011;8810;48.680;8.894;2022-12-07T05:35:15;6.53;;;3.90;;
17384;SDS011;8810;48.680;8.894;2022-12-07T05:37:43;6.30;;;3.63;;
17384;SDS011;8810;48.680;8.894;2022-12-07T05:40:10;7.70;;;4.60;;
17384;SDS011;8810;48.680;8.894;2022-12-07T05:42:40;7.73;;;4.50;;
17384;SDS011;8810;48.680;8.894;2022-12-07T05:45:08;7.97;;;3.90;;
17384;SDS011;8810;48.680;8.894;2022-12-07T05:47:35;8.20;;;4.53;;
17384;SDS011;8810;48.680;8.894;2022-12-07T05:50:02;7.67;;;4.03;;
17384;SDS011;8810;48.680;8.894;2022-12-07T05:52:30;7.20;;;3.83;;
17384;SDS011;8810;48.680;8.894;2022-12-07T05:54:57;6.83;;;3.37;;
17384;SDS011;8810;48.680;8.894;2022-12-07T05:57:24;6.77;;;4.30;;
17384;SDS011;8810;48.680;8.894;2022-12-07T05:59:52;8.03;;;5.23;;
17384;SDS011;8810;48.680;8.894;2022-12-07T06:02:18;8.60;;;4.80;;
17384;SDS011;8810;48.680;8.894;2022-12-07T06:04:45;8.27;;;4.53;;
17384;SDS011;8810;48.680;8.894;2022-12-07T06:07:13;7.97;;;4.40;;
17384;SDS011;8810;48.680;8.894;2022-12-07T06:09:41;10.00;;;5.40;;
17384;SDS011;8810;48.680;8.894;2022-12-07T06:12:09;7.00;;;4.70;;
17384;SDS011;8810;48.680;8.894;2022-12-07T06:14:55;9.23;;;4.57;;
17384;SDS011;8810;48.680;8.894;2022-12-07T06:17:22;7.97;;;4.33;;
17384;SDS011;8810;48.680;8.894;2022-12-07T06:19:49;9.87;;;4.97;;
17384;SDS011;8810;48.680;8.894;2022-12-07T06:22:16;8.67;;;4.40;;
17384;SDS011;8810;48.680;8.894;2022-12-07T06:24:43;9.20;;;4.80;;
17384;SDS011;8810;48.680;8.894;2022-12-07T06:27:10;8.90;;;4.60;;
17384;SDS011;8810;48.680;8.894;2022-12-07T06:29:37;10.40;;;5.60;;
17384;SDS011;8810;48.680;8.894;2022-12-07T06:32:06;8.77;;;5.50;;
17384;SDS011;8810;48.680;8.894;2022-12-07T06:34:32;9.50;;;5.23;;
17384;SDS011;8810;48.680;8.894;2022-12-07T06:36:59;9.80;;;5.30;;
17384;SDS011;8810;48.680;8.894;2022-12-07T06:39:27;9.00;;;5.63;;
17384;SDS011;8810;48.680;8.894;2022-12-07T06:41:54;10.17;;;5.37;;
17384;SDS011;8810;48.680;8.894;2022-12-07T06:44:22;9.33;;;4.90;;
17384;SDS011;8810;48.680;8.894;2022-12-07T06:46:49;8.77;;;4.97;;
17384;SDS011;8810;48.680;8.894;2022-12-07T06:49:18;10.33;;;5.23;;
17384;SDS011;8810;48.680;8.894;2022-12-07T06:51:45;10.63;;;5.47;;
17384;SDS011;8810;48.680;8.894;2022-12-07T06:54:12;8.37;;;4.90;;
17384;SDS011;8810;48.680;8.894;2022-12-07T06:56:40;9.67;;;5.47;;
17384;SDS011;8810;48.680;8.894;2022-12-07T06:59:07;13.03;;;6.53;;
17384;SDS011;8810;48.680;8.894;2022-12-07T07:01:34;13.23;;;6.73;;
17384;SDS011;8810;48.680;8.894;2022-12-07T07:04:02;10.20;;;5.83;;
17384;SDS011;8810;48.680;8.894;2022-12-07T07:06:30;10.73;;;5.43;;
17384;SDS011;8810;48.680;8.894;2022-12-07T07:08:57;11.77;;;6.10;;
17384;SDS011;8810;48.680;8.894;2022-12-07T07:11:24;12.53;;;6.07;;
17384;SDS011;8810;48.680;8.894;2022-12-07T07:13:51;12.45;;;6.63;;
17384;SDS011;8810;48.680;8.894;2022-12-07T07:16:18;14.17;;;7.53;;
17384;SDS011;8810;48.680;8.894;2022-12-07T07:18:45;12.83;;;6.50;;
17384;SDS011;8810;48.680;8.894;2022-12-07T07:21:12;11.83;;;6.37;;
17384;SDS011;8810;48.680;8.894;2022-12-07T07:23:40;12.93;;;6.63;;
17384;SDS011;8810;48.680;8.894;2022-12-07T07:26:07;13.97;;;6.77;;
17384;SDS011;8810;48.680;8.894;2022-12-07T07:28:34;12.57;;;6.50;;
17384;SDS011;8810;48.680;8.894;2022-12-07T07:31:01;14.10;;;6.97;;
17384;SDS011;8810;48.680;8.894;2022-12-07T07:33:27;13.57;;;6.47;;
17384;SDS011;8810;48.680;8.894;2022-12-07T07:35:54;11.80;;;6.43;;
17384;SDS011;8810;48.680;8.894;2022-12-07T07:38:21;14.63;;;7.67;;
17384;SDS011;8810;48.680;8.894;2022-12-07T07:40:49;14.23;;;6.60;;
17384;SDS011;8810;48.680;8.894;2022-12-07T07:43:16;14.40;;;7.27;;
17384;SDS011;8810;48.680;8.894;2022-12-07T07:45:44;14.03;;;6.90;;
17384;SDS011;8810;48.680;8.894;2022-12-07T07:48:10;12.97;;;6.73;;
17384;SDS011;8810;48.680;8.894;2022-12-07T07:50:37;18.40;;;8.30;;
17384;SDS011;8810;48.680;8.894;2022-12-07T07:53:04;17.77;;;7.90;;
17384;SDS011;8810;48.680;8.894;2022-12-07T07:55:31;18.37;;;8.57;;
17384;SDS011;8810;48.680;8.894;2022-12-07T07:57:59;18.37;;;8.63;;
17384;SDS011;8810;48.680;8.894;2022-12-07T08:00:26;15.67;;;7.87;;
17384;SDS011;8810;48.680;8.894;2022-12-07T08:02:53;14.40;;;7.10;;
17384;SDS011;8810;48.680;8.894;2022-12-07T08:05:19;11.23;;;6.50;;
17384;SDS011;8810;48.680;8.894;2022-12-07T08:07:46;12.13;;;6.30;;
17384;SDS011;8810;48.680;8.894;2022-12-07T08:10:13;10.63;;;6.03;;
17384;SDS011;8810;48.680;8.894;2022-12-07T08:12:41;11.27;;;6.30;;
17384;SDS011;8810;48.680;8.894;2022-12-07T08:15:23;10.93;;;6.23;;
17384;SDS011;8810;48.680;8.894;2022-12-07T08:17:51;10.70;;;5.73;;
17384;SDS011;8810;48.680;8.894;2022-12-07T08:20:18;12.43;;;6.30;;
17384;SDS011;8810;48.680;8.894;2022-12-07T08:22:45;14.30;;;6.67;;
17384;SDS011;8810;48.680;8.894;2022-12-07T08:25:12;10.73;;;5.43;;
17384;SDS011;8810;48.680;8.894;2022-12-07T08:27:39;10.13;;;5.97;;
17384;SDS011;8810;48.680;8.894;2022-12-07T08:30:06;11.20;;;5.53;;
17384;SDS011;8810;48.680;8.894;2022-12-07T08:32:35;8.97;;;5.50;;
17384;SDS011;8810;48.680;8.894;2022-12-07T08:35:02;10.43;;;6.03;;
17384;SDS011;8810;48.680;8.894;2022-12-07T08:37:29;10.57;;;5.93;;
17384;SDS011;8810;48.680;8.894;2022-12-07T08:39:56;18.00;;;10.77;;
17384;SDS011;8810;48.680;8.894;2022-12-07T08:42:22;14.23;;;7.30;;
17384;SDS011;8810;48.680;8.894;2022-12-07T08:44:54;13.80;;;7.47;;
17384;SDS011;8810;48.680;8.894;2022-12-07T08:47:21;12.63;;;6.10;;
17384;SDS011;8810;48.680;8.894;2022-12-07T08:49:50;11.77;;;6.13;;
17384;SDS011;8810;48.680;8.894;2022-12-07T08:52:19;10.57;;;5.17;;
17384;SDS011;8810;48.680;8.894;2022-12-07T08:54:46;8.87;;;4.43;;
17384;SDS011;8810;48.680;8.894;2022-12-07T08:57:13;11.27;;;5.90;;
17384;SDS011;8810;48.680;8.894;2022-12-07T08:59:40;9.00;;;5.07;;
17384;SDS011;8810;48.680;8.894;2022-12-07T09:02:07;11.13;;;5.80;;
17384;SDS011;8810;48.680;8.894;2022-12-07T09:04:34;8.67;;;5.07;;
17384;SDS011;8810;48.680;8.894;2022-12-07T09:07:02;9.10;;;5.33;;
17384;SDS011;8810;48.680;8.894;2022-12-07T09:09:29;11.40;;;4.43;;
17384;SDS011;8810;48.680;8.894;2022-12-07T09:11:56;7.97;;;4.23;;
17384;SDS011;8810;48.680;8.894;2022-12-07T09:14:23;7.00;;;4.00;;
17384;SDS011;8810;48.680;8.894;2022-12-07T09:16:50;10.10;;;4.17;;
17384;SDS011;8810;48.680;8.894;2022-12-07T09:19:17;17.43;;;4.13;;
17384;SDS011;8810;48.680;8.894;2022-12-07T09:21:43;6.57;;;3.80;;
17384;SDS011;8810;48.680;8.894;2022-12-07T09:24:12;7.27;;;3.80;;
17384;SDS011;8810;48.680;8.894;2022-12-07T09:26:39;9.57;;;4.60;;
17384;SDS011;8810;48.680;8.894;2022-12-07T09:29:06;7.00;;;3.90;;
17384;SDS011;8810;48.680;8.894;2022-12-07T09:31:35;7.60;;;3.83;;
17384;SDS011;8810;48.680;8.894;2022-12-07T09:34:03;11.00;;;5.50;;
17384;SDS011;8810;48.680;8.894;2022-12-07T09:36:31;13.77;;;6.57;;
17384;SDS011;8810;48.680;8.894;2022-12-07T09:38:58;7.97;;;3.70;;
17384;SDS011;8810;48.680;8.894;2022-12-07T09:41:26;6.93;;;3.60;;
17384;SDS011;8810;48.680;8.894;2022-12-07T09:43:57;9.80;;;3.47;;
17384;SDS011;8810;48.680;8.894;2022-12-07T09:46:30;6.23;;;3.40;;
17384;SDS011;8810;48.680;8.894;2022-12-07T09:49:01;5.57;;;2.83;;
17384;SDS011;8810;48.680;8.894;2022-12-07T09:51:28;6.23;;;3.13;;
17384;SDS011;8810;48.680;8.894;2022-12-07T09:53:56;5.60;;;2.70;;
17384;SDS011;8810;48.680;8.894;2022-12-07T09:56:28;6.00;;;2.90;;
17384;SDS011;8810;48.680;8.894;2022-12-07T09:58:58;7.90;;;2.90;;
17384;SDS011;8810;48.680;8.894;2022-12-07T10:01:27;5.00;;;3.00;;
17384;SDS011;8810;48.680;8.894;2022-12-07T10:03:58;11.07;;;3.03;;
17384;SDS011;8810;48.680;8.894;2022-12-07T10:06:32;5.83;;;2.87;;
17384;SDS011;8810;48.680;8.894;2022-12-07T10:08:58;5.40;;;3.03;;
17384;SDS011;8810;48.680;8.894;2022-12-07T10:11:27;5.00;;;2.90;;
17384;SDS011;8810;48.680;8.894;2022-12-07T10:13:53;4.77;;;2.57;;
17384;SDS011;8810;48.680;8.894;2022-12-07T10:16:32;6.17;;;3.10;;
17384;SDS011;8810;48.680;8.894;2022-12-07T10:19:18;5.53;;;2.60;;
17384;SDS011;8810;48.680;8.894;2022-12-07T10:22:02;5.03;;;2.80;;
17384;SDS011;8810;48.680;8.894;2022-12-07T10:24:36;4.63;;;2.87;;
17384;SDS011;8810;48.680;8.894;2022-12-07T10:27:09;8.20;;;3.10;;
17384;SDS011;8810;48.680;8.894;2022-12-07T10:29:46;4.80;;;2.87;;
17384;SDS011;8810;48.680;8.894;2022-12-07T10:32:26;7.97;;;3.23;;
17384;SDS011;8810;48.680;8.894;2022-12-07T10:35:15;5.40;;;2.87;;
17384;SDS011;8810;48.680;8.894;2022-12-07T10:37:46;5.60;;;3.40;;
17384;SDS011;8810;48.680;8.894;2022-12-07T10:40:25;7.23;;;3.20;;
17384;SDS011;8810;48.680;8.894;2022-12-07T10:43:03;6.07;;;2.90;;
17384;SDS011;8810;48.680;8.894;2022-12-07T10:45:32;7.00;;;2.83;;
17384;SDS011;8810;48.680;8.894;2022-12-07T10:48:02;6.93;;;3.30;;
17384;SDS011;8810;48.680;8.894;2022-12-07T10:50:42;5.90;;;3.30;;
17384;SDS011;8810;48.680;8.894;2022-12-07T10:53:27;8.23;;;3.47;;
17384;SDS011;8810;48.680;8.894;2022-12-07T10:59:03;4.90;;;2.80;;
17384;SDS011;8810;48.680;8.894;2022-12-07T11:01:50;6.13;;;2.80;;
17384;SDS011;8810;48.680;8.894;2022-12-07T11:04:24;6.33;;;3.13;;
17384;SDS011;8810;48.680;8.894;2022-12-07T11:07:01;8.17;;;3.27;;
17384;SDS011;8810;48.680;8.894;2022-12-07T11:15:12;6.47;;;3.20;;
17384;SDS011;8810;48.680;8.894;2022-12-07T11:17:45;9.17;;;3.20;;
17384;SDS011;8810;48.680;8.894;2022-12-07T11:20:28;6.03;;;2.90;;
17384;SDS011;8810;48.680;8.894;2022-12-07T11:23:09;6.87;;;3.20;;
17384;SDS011;8810;48.680;8.894;2022-12-07T11:25:49;4.47;;;2.63;;
17384;SDS011;8810;48.680;8.894;2022-12-07T11:28:25;5.33;;;2.90;;
17384;SDS011;8810;48.680;8.894;2022-12-07T11:31:08;5.97;;;2.90;;
17384;SDS011;8810;48.680;8.894;2022-12-07T11:33:43;6.30;;;2.87;;
17384;SDS011;8810;48.680;8.894;2022-12-07T11:36:29;4.60;;;2.53;;
17384;SDS011;8810;48.680;8.894;2022-12-07T11:39:02;5.60;;;2.57;;
17384;SDS011;8810;48.680;8.894;2022-12-07T11:41:35;5.00;;;2.73;;
17384;SDS011;8810;48.680;8.894;2022-12-07T11:44:06;7.30;;;3.57;;
17384;SDS011;8810;48.680;8.894;2022-12-07T11:46:44;11.90;;;5.03;;
17384;SDS011;8810;48.680;8.894;2022-12-07T11:49:18;10.70;;;4.83;;
17384;SDS011;8810;48.680;8.894;2022-12-07T11:51:51;7.60;;;4.13;;
17384;SDS011;8810;48.680;8.894;2022-12-07T11:54:21;5.87;;;2.90;;
17384;SDS011;8810;48.680;8.894;2022-12-07T11:56:53;4.70;;;2.93;;
17384;SDS011;8810;48.680;8.894;2022-12-07T11:59:27;9.80;;;3.10;;
17384;SDS011;8810;48.680;8.894;2022-12-07T12:02:00;8.40;;;3.03;;
17384;SDS011;8810;48.680;8.894;2022-12-07T12:04:42;4.63;;;2.17;;
17384;SDS011;8810;48.680;8.894;2022-12-07T12:07:16;4.30;;;2.23;;
17384;SDS011;8810;48.680;8.894;2022-12-07T12:09:47;8.83;;;3.10;;
17384;SDS011;8810;48.680;8.894;2022-12-07T12:12:24;13.10;;;3.87;;
17384;SDS011;8810;48.680;8.894;2022-12-07T12:15:13;4.50;;;2.37;;
17384;SDS011;8810;48.680;8.894;2022-12-07T12:17:52;7.67;;;2.93;;
17384;SDS011;8810;48.680;8.894;2022-12-07T12:20:46;9.40;;;2.57;;
17384;SDS011;8810;48.680;8.894;2022-12-07T12:23:16;2.97;;;1.40;;
17384;SDS011;8810;48.680;8.894;2022-12-07T12:25:47;2.17;;;1.53;;
17384;SDS011;8810;48.680;8.894;2022-12-07T12:28:19;1.20;;;1.10;;
17384;SDS011;8810;48.680;8.894;2022-12-07T12:31:04;6.53;;;2.17;;
17384;SDS011;8810;48.680;8.894;2022-12-07T12:33:41;8.60;;;2.80;;
17384;SDS011;8810;48.680;8.894;2022-12-07T12:39:11;8.00;;;3.23;;
17384;SDS011;8810;48.680;8.894;2022-12-07T12:42:00;7.37;;;3.17;;
17384;SDS011;8810;48.680;8.894;2022-12-07T12:44:40;8.53;;;4.17;;
17384;SDS011;8810;48.680;8.894;2022-12-07T12:50:15;4.70;;;2.20;;
17384;SDS011;8810;48.680;8.894;2022-12-07T12:52:49;4.37;;;2.20;;
17384;SDS011;8810;48.680;8.894;2022-12-07T12:55:30;4.00;;;2.10;;
17384;SDS011;8810;48.680;8.894;2022-12-07T13:04:25;2.83;;;1.50;;
17384;SDS011;8810;48.680;8.894;2022-12-07T13:10:21;4.30;;;2.17;;
17384;SDS011;8810;48.680;8.894;2022-12-07T13:12:56;3.83;;;2.13;;
17384;SDS011;8810;48.680;8.894;2022-12-07T13:15:36;3.07;;;2.00;;
17384;SDS011;8810;48.680;8.894;2022-12-07T13:18:22;4.37;;;2.10;;
17384;SDS011;8810;48.680;8.894;2022-12-07T13:20:53;3.87;;;2.03;;
17384;SDS011;8810;48.680;8.894;2022-12-07T13:23:25;6.37;;;2.30;;
17384;SDS011;8810;48.680;8.894;2022-12-07T13:26:15;4.30;;;2.43;;
17384;SDS011;8810;48.680;8.894;2022-12-07T13:28:45;3.73;;;2.10;;
17384;SDS011;8810;48.680;8.894;2022-12-07T13:31:19;6.03;;;2.90;;
17384;SDS011;8810;48.680;8.894;2022-12-07T13:33:56;6.47;;;3.20;;
17384;SDS011;8810;48.680;8.894;2022-12-07T13:36:24;14.43;;;5.07;;
17384;SDS011;8810;48.680;8.894;2022-12-07T13:38:54;10.10;;;4.70;;
17384;SDS011;8810;48.680;8.894;2022-12-07T13:41:24;20.00;;;4.93;;
17384;SDS011;8810;48.680;8.894;2022-12-07T13:43:53;11.00;;;3.60;;
17384;SDS011;8810;48.680;8.894;2022-12-07T13:46:26;11.13;;;4.07;;
17384;SDS011;8810;48.680;8.894;2022-12-07T13:49:01;15.30;;;4.90;;
17384;SDS011;8810;48.680;8.894;2022-12-07T13:51:28;6.27;;;2.60;;
17384;SDS011;8810;48.680;8.894;2022-12-07T13:54:06;7.87;;;3.30;;
17384;SDS011;8810;48.680;8.894;2022-12-07T13:56:37;5.10;;;2.67;;
17384;SDS011;8810;48.680;8.894;2022-12-07T13:59:07;6.97;;;2.17;;
17384;SDS011;8810;48.680;8.894;2022-12-07T14:01:39;4.73;;;2.53;;
17384;SDS011;8810;48.680;8.894;2022-12-07T14:04:29;12.53;;;4.80;;
17384;SDS011;8810;48.680;8.894;2022-12-07T14:06:58;5.63;;;2.90;;
17384;SDS011;8810;48.680;8.894;2022-12-07T14:09:27;5.73;;;3.10;;
17384;SDS011;8810;48.680;8.894;2022-12-07T14:11:57;12.63;;;4.17;;
17384;SDS011;8810;48.680;8.894;2022-12-07T14:14:25;16.53;;;6.33;;
17384;SDS011;8810;48.680;8.894;2022-12-07T14:16:56;9.50;;;4.43;;
17384;SDS011;8810;48.680;8.894;2022-12-07T14:19:41;5.83;;;3.13;;
17384;SDS011;8810;48.680;8.894;2022-12-07T14:22:18;7.30;;;3.40;;
17384;SDS011;8810;48.680;8.894;2022-12-07T14:24:48;7.00;;;3.77;;
17384;SDS011;8810;48.680;8.894;2022-12-07T14:27:18;13.47;;;5.90;;
17384;SDS011;8810;48.680;8.894;2022-12-07T14:29:45;12.63;;;5.13;;
17384;SDS011;8810;48.680;8.894;2022-12-07T14:32:23;7.57;;;4.03;;
17384;SDS011;8810;48.680;8.894;2022-12-07T14:35:01;24.00;;;8.43;;
17384;SDS011;8810;48.680;8.894;2022-12-07T14:37:29;23.73;;;8.20;;
17384;SDS011;8810;48.680;8.894;2022-12-07T14:39:56;11.67;;;5.20;;
17384;SDS011;8810;48.680;8.894;2022-12-07T14:42:27;5.70;;;3.60;;
17384;SDS011;8810;48.680;8.894;2022-12-07T14:44:56;6.30;;;4.13;;
17384;SDS011;8810;48.680;8.894;2022-12-07T14:47:23;5.30;;;3.27;;
17384;SDS011;8810;48.680;8.894;2022-12-07T14:49:51;5.53;;;3.47;;
17384;SDS011;8810;48.680;8.894;2022-12-07T14:52:19;5.33;;;3.30;;
17384;SDS011;8810;48.680;8.894;2022-12-07T14:54:48;7.07;;;3.37;;
17384;SDS011;8810;48.680;8.894;2022-12-07T14:57:15;6.13;;;2.33;;
17384;SDS011;8810;48.680;8.894;2022-12-07T14:59:43;3.57;;;2.27;;
17384;SDS011;8810;48.680;8.894;2022-12-07T15:02:10;5.17;;;2.47;;
17384;SDS011;8810;48.680;8.894;2022-12-07T15:04:41;10.27;;;4.10;;
17384;SDS011;8810;48.680;8.894;2022-12-07T15:07:09;9.77;;;3.90;;
17384;SDS011;8810;48.680;8.894;2022-12-07T15:09:41;8.43;;;2.90;;
17384;SDS011;8810;48.680;8.894;2022-12-07T15:12:07;6.27;;;3.43;;
17384;SDS011;8810;48.680;8.894;2022-12-07T15:14:34;10.83;;;4.53;;
17384;SDS011;8810;48.680;8.894;2022-12-07T15:17:02;10.20;;;5.37;;
17384;SDS011;8810;48.680;8.894;2022-12-07T15:19:29;6.20;;;3.87;;
17384;SDS011;8810;48.680;8.894;2022-12-07T15:21:57;7.53;;;4.00;;
17384;SDS011;8810;48.680;8.894;2022-12-07T15:24:24;6.60;;;4.20;;
17384;SDS011;8810;48.680;8.894;2022-12-07T15:26:52;8.13;;;4.20;;
17384;SDS011;8810;48.680;8.894;2022-12-07T15:29:18;12.23;;;4.57;;
17384;SDS011;8810;48.680;8.894;2022-12-07T15:31:45;8.07;;;4.73;;
17384;SDS011;8810;48.680;8.894;2022-12-07T15:34:16;6.83;;;4.00;;
17384;SDS011;8810;48.680;8.894;2022-12-07T15:36:42;10.53;;;4.57;;
17384;SDS011;8810;48.680;8.894;2022-12-07T15:39:10;8.90;;;4.77;;
17384;SDS011;8810;48.680;8.894;2022-12-07T15:41:37;9.43;;;4.67;;